createdAt,value
2017-12-21T00:01:47.226Z,19.83
2017-12-21T00:04:14.623Z,19.80
2017-12-21T00:06:42.019Z,20.80
2017-12-21T00:09:09.420Z,20.10
2017-12-21T00:11:36.810Z,21.30
2017-12-21T00:14:04.210Z,20.50
2017-12-21T00:16:31.598Z,19.77
2017-12-21T00:18:59.027Z,22.50
2017-12-21T00:21:26.410Z,21.50
2017-12-21T00:23:53.810Z,20.73
2017-12-21T00:26:21.206Z,18.70
2017-12-21T00:28:48.603Z,19.47
2017-12-21T00:31:15.998Z,18.60
2017-12-21T00:33:43.471Z,20.00
2017-12-21T00:36:10.865Z,18.10
2017-12-21T00:38:38.274Z,19.60
2017-12-21T00:41:05.699Z,19.03
2017-12-21T00:43:33.095Z,16.80
2017-12-21T00:46:11.264Z,19.73
2017-12-21T00:48:38.764Z,21.37
2017-12-21T00:51:06.155Z,21.70
2017-12-21T00:53:33.888Z,22.13
2017-12-21T00:56:01.311Z,20.57
2017-12-21T00:58:28.721Z,22.33
2017-12-21T01:00:56.112Z,21.93
2017-12-21T01:03:23.520Z,24.37
2017-12-21T01:05:50.915Z,24.43
2017-12-21T01:08:18.411Z,23.70
2017-12-21T01:10:45.807Z,22.90
2017-12-21T01:13:13.212Z,24.10
2017-12-21T01:15:40.611Z,21.93
2017-12-21T01:18:08.011Z,21.77
2017-12-21T01:20:35.487Z,22.20
2017-12-21T01:23:02.896Z,21.70
2017-12-21T01:25:30.299Z,22.20
2017-12-21T01:27:57.703Z,19.60
2017-12-21T01:30:25.108Z,18.60
2017-12-21T01:32:52.577Z,18.30
2017-12-21T01:35:19.951Z,19.47
2017-12-21T01:37:47.347Z,20.30
2017-12-21T01:40:14.746Z,17.87
2017-12-21T01:42:42.166Z,19.40
2017-12-21T01:45:09.580Z,20.77
2017-12-21T01:47:36.991Z,17.87
2017-12-21T01:50:04.407Z,16.00
2017-12-21T01:52:31.807Z,19.00
2017-12-21T01:54:59.200Z,16.00
2017-12-21T01:57:26.605Z,14.73
2017-12-21T01:59:53.999Z,15.40
2017-12-21T02:02:21.402Z,15.80
2017-12-21T02:04:48.822Z,13.70
2017-12-21T02:07:16.220Z,13.70
2017-12-21T02:09:43.623Z,13.33
2017-12-21T02:12:11.017Z,14.10
2017-12-21T02:14:38.420Z,13.20
2017-12-21T02:17:05.831Z,13.57
2017-12-21T02:19:33.231Z,11.60
2017-12-21T02:22:00.623Z,13.40
2017-12-21T02:24:28.021Z,12.17
2017-12-21T02:26:55.411Z,11.67
2017-12-21T02:29:22.814Z,11.90
2017-12-21T02:31:50.222Z,11.57
2017-12-21T02:34:17.619Z,11.50
2017-12-21T02:36:45.015Z,11.93
2017-12-21T02:39:12.420Z,11.03
2017-12-21T02:41:39.817Z,10.80
2017-12-21T02:44:07.219Z,10.40
2017-12-21T02:46:34.611Z,10.90
2017-12-21T02:49:02.015Z,10.90
2017-12-21T02:51:29.415Z,10.63
2017-12-21T02:53:56.857Z,10.13
2017-12-21T02:56:24.205Z,9.50
2017-12-21T02:58:51.715Z,9.33
2017-12-21T03:01:19.108Z,8.40
2017-12-21T03:03:46.607Z,8.47
2017-12-21T03:06:14.006Z,9.37
2017-12-21T03:08:41.410Z,8.33
2017-12-21T03:11:08.806Z,7.77
2017-12-21T03:13:36.205Z,8.33
2017-12-21T03:16:03.591Z,9.00
2017-12-21T03:18:31.029Z,9.33
2017-12-21T03:20:58.409Z,8.20
2017-12-21T03:23:25.809Z,8.30
2017-12-21T03:25:53.195Z,7.87
2017-12-21T03:28:20.595Z,8.27
2017-12-21T03:30:47.991Z,7.10
2017-12-21T03:33:15.395Z,8.63
2017-12-21T03:35:42.775Z,7.70
2017-12-21T03:38:10.171Z,8.07
2017-12-21T03:40:37.586Z,8.03
2017-12-21T03:43:04.983Z,9.40
2017-12-21T03:45:32.371Z,8.83
2017-12-21T03:47:59.765Z,8.60
2017-12-21T03:50:27.262Z,9.27
2017-12-21T03:52:54.666Z,9.00
2017-12-21T03:55:22.051Z,8.57
2017-12-21T03:57:49.520Z,8.40
2017-12-21T04:00:16.927Z,8.30
2017-12-21T04:02:44.315Z,7.93
2017-12-21T04:05:11.719Z,9.20
2017-12-21T04:07:39.139Z,8.40
2017-12-21T04:10:06.527Z,7.93
2017-12-21T04:12:33.920Z,7.07
2017-12-21T04:15:01.316Z,7.27
2017-12-21T04:17:28.702Z,6.93
2017-12-21T04:19:56.100Z,7.47
2017-12-21T04:22:23.482Z,7.23
2017-12-21T04:24:51.316Z,7.30
2017-12-21T04:27:18.705Z,8.00
2017-12-21T04:29:46.113Z,7.50
2017-12-21T04:32:13.612Z,6.27
2017-12-21T04:34:41.015Z,7.93
2017-12-21T04:37:08.432Z,7.60
2017-12-21T04:39:35.821Z,7.47
2017-12-21T04:42:03.215Z,6.60
2017-12-21T04:44:30.615Z,7.07
2017-12-21T04:46:58.064Z,7.30
2017-12-21T04:49:25.419Z,7.67
2017-12-21T04:51:52.865Z,7.23
2017-12-21T04:54:20.242Z,7.20
2017-12-21T04:56:47.663Z,6.63
2017-12-21T04:59:15.092Z,7.67
2017-12-21T05:01:42.592Z,7.33
2017-12-21T05:04:10.034Z,6.57
2017-12-21T05:06:37.423Z,6.67
2017-12-21T05:09:04.816Z,6.10
2017-12-21T05:11:32.208Z,6.60
2017-12-21T05:13:59.627Z,6.73
2017-12-21T05:16:27.019Z,7.50
2017-12-21T05:18:54.419Z,6.57
2017-12-21T05:21:21.923Z,6.83
2017-12-21T05:23:49.315Z,6.50
2017-12-21T05:26:16.700Z,7.23
2017-12-21T05:28:44.095Z,6.67
2017-12-21T05:31:11.484Z,7.40
2017-12-21T05:33:38.882Z,7.83
2017-12-21T05:36:06.280Z,7.73
2017-12-21T05:38:33.679Z,7.87
2017-12-21T05:41:01.071Z,7.60
2017-12-21T05:43:28.651Z,8.00
2017-12-21T05:45:56.038Z,8.40
2017-12-21T05:48:23.533Z,7.53
2017-12-21T05:50:50.994Z,10.03
2017-12-21T05:53:18.390Z,8.37
2017-12-21T05:55:45.783Z,9.30
2017-12-21T05:58:13.255Z,8.83
2017-12-21T06:00:40.646Z,9.07
2017-12-21T06:03:08.081Z,8.20
2017-12-21T06:05:35.464Z,9.97
2017-12-21T06:08:02.846Z,9.63
2017-12-21T06:10:30.247Z,9.67
2017-12-21T06:12:57.646Z,10.47
2017-12-21T06:15:25.039Z,9.57
2017-12-21T06:17:52.431Z,9.30
2017-12-21T06:20:19.826Z,10.40
2017-12-21T06:22:47.216Z,8.30
2017-12-21T06:25:14.674Z,9.40
2017-12-21T06:27:42.001Z,9.00
2017-12-21T06:30:09.407Z,8.70
2017-12-21T06:32:36.796Z,8.90
2017-12-21T06:35:04.211Z,8.60
2017-12-21T06:37:31.603Z,9.10
2017-12-21T06:39:58.999Z,9.10
2017-12-21T06:42:26.395Z,9.10
2017-12-21T06:44:53.810Z,9.10
2017-12-21T06:47:21.200Z,8.30
2017-12-21T06:49:48.594Z,8.83
2017-12-21T06:52:15.980Z,8.90
2017-12-21T06:54:43.435Z,8.80
2017-12-21T06:57:10.897Z,9.20
2017-12-21T06:59:38.331Z,10.23
2017-12-21T07:02:05.718Z,8.93
2017-12-21T07:04:33.118Z,8.37
2017-12-21T07:07:00.502Z,9.50
2017-12-21T07:09:27.903Z,9.20
2017-12-21T07:11:55.293Z,10.40
2017-12-21T07:14:22.706Z,10.07
2017-12-21T07:16:50.089Z,10.07
2017-12-21T07:19:17.494Z,11.93
2017-12-21T07:21:44.879Z,10.13
2017-12-21T07:24:12.295Z,12.67
2017-12-21T07:26:39.687Z,12.13
2017-12-21T07:29:07.091Z,13.00
2017-12-21T07:31:34.550Z,12.33
2017-12-21T07:34:01.995Z,12.13
2017-12-21T07:36:29.376Z,14.27
2017-12-21T07:38:56.771Z,13.30
2017-12-21T07:41:24.178Z,14.20
2017-12-21T07:43:51.638Z,12.70
2017-12-21T07:46:19.039Z,12.60
2017-12-21T07:48:46.426Z,13.97
2017-12-21T07:51:13.832Z,13.83
2017-12-21T07:53:41.228Z,11.43
2017-12-21T07:56:08.680Z,11.07
2017-12-21T07:58:36.067Z,11.73
2017-12-21T08:01:03.470Z,10.90
2017-12-21T08:03:30.864Z,12.37
2017-12-21T08:05:58.331Z,11.37
2017-12-21T08:08:25.727Z,11.73
2017-12-21T08:10:53.126Z,12.83
2017-12-21T08:13:20.523Z,11.87
2017-12-21T08:15:47.923Z,11.83
2017-12-21T08:18:15.310Z,12.20
2017-12-21T08:20:42.726Z,13.03
2017-12-21T08:23:10.122Z,12.20
2017-12-21T08:25:37.530Z,12.03
2017-12-21T08:28:04.915Z,13.20
2017-12-21T08:30:32.323Z,13.70
2017-12-21T08:32:59.719Z,12.10
2017-12-21T08:35:27.262Z,13.70
2017-12-21T08:37:54.599Z,13.50
2017-12-21T08:40:22.005Z,12.83
2017-12-21T08:42:49.387Z,14.10
2017-12-21T08:45:16.788Z,14.07
2017-12-21T08:47:44.189Z,14.50
2017-12-21T08:50:11.608Z,14.20
2017-12-21T08:52:39.082Z,14.00
2017-12-21T08:55:07.137Z,13.63
2017-12-21T08:57:34.526Z,14.30
2017-12-21T09:00:01.951Z,14.67
2017-12-21T09:02:29.421Z,14.67
2017-12-21T09:04:56.818Z,14.10
2017-12-21T09:07:24.207Z,14.03
2017-12-21T09:09:51.615Z,15.00
2017-12-21T09:12:19.007Z,15.70
2017-12-21T09:14:46.409Z,15.90
2017-12-21T09:17:13.798Z,15.80
2017-12-21T09:19:41.205Z,15.97
2017-12-21T09:22:08.590Z,15.53
2017-12-21T09:24:35.990Z,15.70
2017-12-21T09:27:03.383Z,17.43
2017-12-21T09:29:30.782Z,18.03
2017-12-21T09:31:58.175Z,17.00
2017-12-21T09:34:25.575Z,17.97
2017-12-21T09:36:52.975Z,17.47
2017-12-21T09:39:20.374Z,18.07
2017-12-21T09:41:47.923Z,17.37
2017-12-21T09:44:15.340Z,16.90
2017-12-21T09:46:42.823Z,15.93
2017-12-21T09:49:10.226Z,16.23
2017-12-21T09:51:37.618Z,13.93
2017-12-21T09:54:05.020Z,11.77
2017-12-21T09:56:32.423Z,8.97
2017-12-21T09:59:00.719Z,7.20
2017-12-21T10:01:28.115Z,6.87
2017-12-21T10:03:55.510Z,7.30
2017-12-21T10:06:22.990Z,8.90
2017-12-21T10:08:50.446Z,9.23
2017-12-21T10:11:17.834Z,7.00
2017-12-21T10:13:45.234Z,8.53
2017-12-21T10:16:12.725Z,7.80
2017-12-21T10:18:40.114Z,8.33
2017-12-21T10:21:07.507Z,7.50
2017-12-21T10:23:34.898Z,7.03
2017-12-21T10:26:02.336Z,7.33
2017-12-21T10:28:29.733Z,8.30
2017-12-21T10:30:57.175Z,8.30
2017-12-21T10:33:24.562Z,8.90
2017-12-21T10:35:51.955Z,8.27
2017-12-21T10:38:19.406Z,9.77
2017-12-21T10:40:46.818Z,8.57
2017-12-21T10:43:14.190Z,8.70
2017-12-21T10:45:41.632Z,8.57
2017-12-21T10:48:09.015Z,9.07
2017-12-21T10:50:36.402Z,7.80
2017-12-21T10:53:03.791Z,7.27
2017-12-21T10:55:31.183Z,7.27
2017-12-21T10:57:58.653Z,5.77
2017-12-21T11:00:26.048Z,5.93
2017-12-21T11:02:53.438Z,6.30
2017-12-21T11:05:20.831Z,6.97
2017-12-21T11:07:48.210Z,6.10
2017-12-21T11:10:15.599Z,4.87
2017-12-21T11:12:42.983Z,4.40
2017-12-21T11:15:10.390Z,4.40
2017-12-21T11:17:37.794Z,4.97
2017-12-21T11:20:05.183Z,5.47
2017-12-21T11:22:32.569Z,5.03
2017-12-21T11:24:59.955Z,5.27
2017-12-21T11:27:27.421Z,5.50
2017-12-21T11:29:54.812Z,4.90
2017-12-21T11:32:22.222Z,4.30
2017-12-21T11:34:49.614Z,4.30
2017-12-21T11:37:17.315Z,3.87
2017-12-21T11:39:44.698Z,4.53
2017-12-21T11:42:12.095Z,4.60
2017-12-21T11:44:39.475Z,4.30
2017-12-21T11:47:06.958Z,5.00
2017-12-21T11:49:34.347Z,5.37
2017-12-21T11:52:01.737Z,5.20
2017-12-21T11:54:29.123Z,5.07
2017-12-21T11:56:56.515Z,5.30
2017-12-21T11:59:23.901Z,5.87
2017-12-21T12:01:51.290Z,5.00
2017-12-21T12:04:18.679Z,4.80
2017-12-21T12:06:46.075Z,5.30
2017-12-21T12:09:13.455Z,5.30
2017-12-21T12:11:40.911Z,5.00
2017-12-21T12:14:08.303Z,6.17
2017-12-21T12:16:35.704Z,5.63
2017-12-21T12:19:03.088Z,5.87
2017-12-21T12:21:30.479Z,5.43
2017-12-21T12:23:57.903Z,5.43
2017-12-21T12:26:25.299Z,4.63
2017-12-21T12:28:52.684Z,5.07
2017-12-21T12:31:20.092Z,5.40
2017-12-21T12:33:47.475Z,6.80
2017-12-21T12:36:14.934Z,6.57
2017-12-21T12:38:42.327Z,5.50
2017-12-21T12:41:09.720Z,5.40
2017-12-21T12:43:37.098Z,4.10
2017-12-21T12:46:04.496Z,3.70
2017-12-21T12:48:31.889Z,4.90
2017-12-21T12:50:59.267Z,5.37
2017-12-21T12:53:26.647Z,4.50
2017-12-21T12:55:54.035Z,4.20
2017-12-21T12:58:21.425Z,3.73
2017-12-21T13:00:48.812Z,4.13
2017-12-21T13:03:16.271Z,3.10
2017-12-21T13:05:43.663Z,4.23
2017-12-21T13:08:11.055Z,3.07
2017-12-21T13:10:38.447Z,3.47
2017-12-21T13:13:05.831Z,3.43
2017-12-21T13:15:33.211Z,3.60
2017-12-21T13:18:00.654Z,3.60
2017-12-21T13:20:28.842Z,3.10
2017-12-21T13:22:56.283Z,3.77
2017-12-21T13:25:23.691Z,2.60
2017-12-21T13:27:51.090Z,3.60
2017-12-21T13:30:18.482Z,3.37
2017-12-21T13:32:45.869Z,3.37
2017-12-21T13:35:13.266Z,3.03
2017-12-21T13:37:40.668Z,3.90
2017-12-21T13:40:08.053Z,3.90
2017-12-21T13:42:35.475Z,3.63
2017-12-21T13:45:02.868Z,3.40
2017-12-21T13:47:30.271Z,3.47
2017-12-21T13:49:57.671Z,3.50
2017-12-21T13:52:25.059Z,3.13
2017-12-21T13:54:52.554Z,4.07
2017-12-21T13:57:19.943Z,4.13
2017-12-21T13:59:47.336Z,4.30
2017-12-21T14:02:14.738Z,4.00
2017-12-21T14:04:42.123Z,3.60
2017-12-21T14:07:09.510Z,4.27
2017-12-21T14:09:36.899Z,4.17
2017-12-21T14:12:04.341Z,4.60
2017-12-21T14:14:31.819Z,4.03
2017-12-21T14:16:59.210Z,5.20
2017-12-21T14:19:26.599Z,4.60
2017-12-21T14:21:53.991Z,4.50
2017-12-21T14:24:21.379Z,4.83
2017-12-21T14:26:48.875Z,6.10
2017-12-21T14:29:16.262Z,5.50
2017-12-21T14:31:43.657Z,5.00
2017-12-21T14:34:11.039Z,5.97
2017-12-21T14:36:38.433Z,6.60
2017-12-21T14:39:05.819Z,6.20
2017-12-21T14:41:33.222Z,5.60
2017-12-21T14:44:00.622Z,4.70
2017-12-21T14:46:28.119Z,5.97
2017-12-21T14:48:55.509Z,5.17
2017-12-21T14:51:22.899Z,4.43
2017-12-21T14:53:50.383Z,5.30
2017-12-21T14:56:17.783Z,6.10
2017-12-21T14:58:45.162Z,5.50
2017-12-21T15:01:12.561Z,5.93
2017-12-21T15:03:39.943Z,5.53
2017-12-21T15:06:07.339Z,5.20
2017-12-21T15:08:34.825Z,5.40
2017-12-21T15:11:02.272Z,6.70
2017-12-21T15:13:29.658Z,5.43
2017-12-21T15:15:57.046Z,5.23
2017-12-21T15:18:24.445Z,5.10
2017-12-21T15:20:51.895Z,5.93
2017-12-21T15:23:19.287Z,5.97
2017-12-21T15:25:46.675Z,7.30
2017-12-21T15:28:14.060Z,6.53
2017-12-21T15:30:41.442Z,5.70
2017-12-21T15:33:08.835Z,6.43
2017-12-21T15:35:36.223Z,6.50
2017-12-21T15:38:03.619Z,6.57
2017-12-21T15:40:31.007Z,6.07
2017-12-21T15:42:58.401Z,6.23
2017-12-21T15:45:25.787Z,6.30
2017-12-21T15:47:53.201Z,7.00
2017-12-21T15:50:20.583Z,6.50
2017-12-21T15:52:48.013Z,7.23
2017-12-21T15:55:15.391Z,6.23
2017-12-21T15:57:42.791Z,6.90
2017-12-21T16:00:10.174Z,6.93
2017-12-21T16:02:37.573Z,7.43
2017-12-21T16:05:04.982Z,7.07
2017-12-21T16:07:32.382Z,7.80
2017-12-21T16:09:59.783Z,7.30
2017-12-21T16:12:27.219Z,8.90
2017-12-21T16:14:54.584Z,7.93
2017-12-21T16:17:21.987Z,7.90
2017-12-21T16:19:49.379Z,7.57
2017-12-21T16:22:16.798Z,9.57
2017-12-21T16:24:44.188Z,9.10
2017-12-21T16:27:11.692Z,10.23
2017-12-21T16:29:39.094Z,9.27
2017-12-21T16:32:06.590Z,10.67
2017-12-21T16:34:34.042Z,12.43
2017-12-21T16:37:01.434Z,10.73
2017-12-21T16:39:28.835Z,11.60
2017-12-21T16:41:56.234Z,12.03
2017-12-21T16:44:23.773Z,11.97
2017-12-21T16:46:51.159Z,11.80
2017-12-21T16:49:18.555Z,11.53
2017-12-21T16:51:45.960Z,11.97
2017-12-21T16:54:13.383Z,12.40
2017-12-21T16:56:40.767Z,12.97
2017-12-21T16:59:08.188Z,12.50
2017-12-21T17:01:35.581Z,12.93
2017-12-21T17:04:02.971Z,13.37
2017-12-21T17:06:30.371Z,13.53
2017-12-21T17:08:57.767Z,13.93
2017-12-21T17:11:25.161Z,15.33
2017-12-21T17:13:52.557Z,15.63
2017-12-21T17:16:19.954Z,15.93
2017-12-21T17:18:47.460Z,17.73
2017-12-21T17:21:15.171Z,19.20
2017-12-21T17:23:42.572Z,18.03
2017-12-21T17:26:09.975Z,19.60
2017-12-21T17:28:37.387Z,19.93
2017-12-21T17:31:04.831Z,16.23
2017-12-21T17:33:32.186Z,17.30
2017-12-21T17:35:59.592Z,15.50
2017-12-21T17:38:27.007Z,16.60
2017-12-21T17:40:54.403Z,16.90
2017-12-21T17:43:22.409Z,18.13
2017-12-21T17:45:49.797Z,21.50
2017-12-21T17:48:17.233Z,39.83
2017-12-21T17:50:44.630Z,48.60
2017-12-21T17:53:12.040Z,37.07
2017-12-21T17:55:39.433Z,32.17
2017-12-21T17:58:06.842Z,28.50
2017-12-21T18:00:34.244Z,25.23
2017-12-21T18:03:01.675Z,27.13
2017-12-21T18:05:29.103Z,37.83
2017-12-21T18:07:56.592Z,30.17
2017-12-21T18:10:23.987Z,27.80
2017-12-21T18:12:51.387Z,22.73
2017-12-21T18:15:18.856Z,26.23
2017-12-21T18:17:46.313Z,27.37
2017-12-21T18:20:13.707Z,29.73
2017-12-21T18:22:41.106Z,20.97
2017-12-21T18:25:08.504Z,19.87
2017-12-21T18:27:35.917Z,19.93
2017-12-21T18:30:03.843Z,18.95
2017-12-21T18:32:31.359Z,18.57
2017-12-21T18:34:58.755Z,19.37
2017-12-21T18:37:26.154Z,19.60
2017-12-21T18:39:53.552Z,24.80
2017-12-21T18:42:20.954Z,27.57
2017-12-21T18:44:48.355Z,33.47
2017-12-21T18:47:15.751Z,31.27
2017-12-21T18:49:43.151Z,29.20
2017-12-21T18:52:10.555Z,20.43
2017-12-21T18:54:38.054Z,21.07
2017-12-21T18:57:05.451Z,20.67
2017-12-21T18:59:32.854Z,20.80
2017-12-21T19:02:00.251Z,20.83
2017-12-21T19:04:27.679Z,19.67
2017-12-21T19:06:55.094Z,19.90
2017-12-21T19:09:22.495Z,19.23
2017-12-21T19:11:49.957Z,20.70
2017-12-21T19:14:17.351Z,19.33
2017-12-21T19:16:44.753Z,18.97
2017-12-21T19:19:12.145Z,19.00
2017-12-21T19:21:39.541Z,17.90
2017-12-21T19:24:06.939Z,20.27
2017-12-21T19:26:34.336Z,16.60
2017-12-21T19:29:01.732Z,17.43
2017-12-21T19:31:29.127Z,16.20
2017-12-21T19:33:56.572Z,18.10
2017-12-21T19:36:23.963Z,15.50
2017-12-21T19:38:51.450Z,16.90
2017-12-21T19:41:18.856Z,15.40
2017-12-21T19:43:46.251Z,15.73
2017-12-21T19:46:13.671Z,14.83
2017-12-21T19:48:41.079Z,12.80
2017-12-21T19:51:08.475Z,15.17
2017-12-21T19:53:35.936Z,22.70
2017-12-21T19:56:03.331Z,15.93
2017-12-21T19:58:30.727Z,17.83
2017-12-21T20:00:58.140Z,16.40
2017-12-21T20:03:25.603Z,12.00
2017-12-21T20:05:53.067Z,13.43
2017-12-21T20:08:20.459Z,12.63
2017-12-21T20:10:47.851Z,14.60
2017-12-21T20:13:15.254Z,15.70
2017-12-21T20:15:42.656Z,13.10
2017-12-21T20:18:10.082Z,14.80
2017-12-21T20:20:37.464Z,14.07
2017-12-21T20:23:04.877Z,13.67
2017-12-21T20:25:32.278Z,14.07
2017-12-21T20:27:59.683Z,14.60
2017-12-21T20:30:27.159Z,14.90
2017-12-21T20:32:54.551Z,14.60
2017-12-21T20:35:21.953Z,16.00
2017-12-21T20:37:49.348Z,16.77
2017-12-21T20:40:16.741Z,17.10
2017-12-21T20:42:44.135Z,16.67
2017-12-21T20:45:11.631Z,19.20
2017-12-21T20:47:39.024Z,18.63
2017-12-21T20:50:06.423Z,19.57
2017-12-21T20:52:33.815Z,20.07
2017-12-21T20:55:01.266Z,20.33
2017-12-21T20:57:28.655Z,22.00
2017-12-21T20:59:56.056Z,21.33
2017-12-21T21:02:23.540Z,22.80
2017-12-21T21:04:51.018Z,23.60
2017-12-21T21:07:18.436Z,22.90
2017-12-21T21:09:45.838Z,25.70
2017-12-21T21:12:14.014Z,25.47
2017-12-21T21:14:41.412Z,26.43
2017-12-21T21:17:08.803Z,24.87
2017-12-21T21:19:36.360Z,24.57
2017-12-21T21:22:03.807Z,25.53
2017-12-21T21:24:31.323Z,25.03
2017-12-21T21:26:58.712Z,23.60
2017-12-21T21:29:26.133Z,24.93
2017-12-21T21:31:53.556Z,24.40
2017-12-21T21:34:21.027Z,23.33
2017-12-21T21:36:48.429Z,24.00
2017-12-21T21:39:15.843Z,25.37
2017-12-21T21:41:43.247Z,25.40
2017-12-21T21:44:10.646Z,25.03
2017-12-21T21:46:38.048Z,24.70
2017-12-21T21:49:05.443Z,25.57
2017-12-21T21:51:32.834Z,25.90
2017-12-21T21:54:00.234Z,24.97
2017-12-21T21:56:27.654Z,24.57
2017-12-21T21:58:55.051Z,25.60
2017-12-21T22:01:22.459Z,24.20
2017-12-21T22:03:49.852Z,25.60
2017-12-21T22:06:17.263Z,23.80
2017-12-21T22:08:44.664Z,22.63
2017-12-21T22:11:12.068Z,23.17
2017-12-21T22:13:39.475Z,24.67
2017-12-21T22:16:06.896Z,24.70
2017-12-21T22:18:34.276Z,25.33
2017-12-21T22:21:01.735Z,24.23
2017-12-21T22:23:29.125Z,22.83
2017-12-21T22:25:56.538Z,23.87
2017-12-21T22:28:23.935Z,23.80
2017-12-21T22:30:51.350Z,23.20
2017-12-21T22:33:18.754Z,24.20
2017-12-21T22:35:46.147Z,23.47
2017-12-21T22:38:13.582Z,23.30
2017-12-21T22:40:41.012Z,24.50
2017-12-21T22:43:08.415Z,24.10
2017-12-21T22:45:35.805Z,23.23
2017-12-21T22:48:03.227Z,23.00
2017-12-21T22:50:30.621Z,25.40
2017-12-21T22:52:58.027Z,25.07
2017-12-21T22:55:25.425Z,25.80
2017-12-21T22:57:52.863Z,24.20
2017-12-21T23:00:25.799Z,26.65
2017-12-21T23:02:53.798Z,26.23
2017-12-21T23:05:22.555Z,23.87
2017-12-21T23:07:49.982Z,24.70
2017-12-21T23:10:17.371Z,23.10
2017-12-21T23:12:44.770Z,24.73
2017-12-21T23:15:12.184Z,25.20
2017-12-21T23:17:39.567Z,24.87
2017-12-21T23:20:06.964Z,23.90
2017-12-21T23:22:34.471Z,24.00
2017-12-21T23:25:01.828Z,23.40
2017-12-21T23:27:29.243Z,26.77
2017-12-21T23:29:56.647Z,23.87
2017-12-21T23:32:24.054Z,24.50
2017-12-21T23:34:51.444Z,22.97
2017-12-21T23:37:18.847Z,21.97
2017-12-21T23:39:46.239Z,24.07
2017-12-21T23:42:13.742Z,25.40
2017-12-21T23:44:41.141Z,23.63
2017-12-21T23:47:08.526Z,23.37
2017-12-21T23:49:35.927Z,23.80
2017-12-21T23:52:03.315Z,22.87
2017-12-21T23:54:30.715Z,20.37
2017-12-21T23:56:58.108Z,21.20
2017-12-21T23:59:25.579Z,20.73
